sensor_id;sensor_type;location;lat;lon;timestamp;P1;durP1;ratioP1;P2;durP2;ratioP2
77040;SDS011;65974;42.664;23.264;2023-09-19T00:03:15;20.40;;;8.82;;
77040;SDS011;65974;42.664;23.264;2023-09-19T00:05:41;20.20;;;10.43;;
77040;SDS011;65974;42.664;23.264;2023-09-19T00:08:09;16.83;;;9.88;;
77040;SDS011;65974;42.664;23.264;2023-09-19T00:10:35;17.90;;;10.27;;
77040;SDS011;65974;42.664;23.264;2023-09-19T00:13:01;17.75;;;10.32;;
77040;SDS011;65974;42.664;23.264;2023-09-19T00:15:39;16.13;;;9.88;;
77040;SDS011;65974;42.664;23.264;2023-09-19T00:18:06;17.88;;;10.43;;
77040;SDS011;65974;42.664;23.264;2023-09-19T00:20:36;17.83;;;10.27;;
77040;SDS011;65974;42.664;23.264;2023-09-19T00:23:03;19.70;;;11.82;;
77040;SDS011;65974;42.664;23.264;2023-09-19T00:25:34;17.50;;;9.73;;
77040;SDS011;65974;42.664;23.264;2023-09-19T00:28:01;15.82;;;8.73;;
77040;SDS011;65974;42.664;23.264;2023-09-19T00:30:26;17.92;;;9.90;;
77040;SDS011;65974;42.664;23.264;2023-09-19T00:32:52;16.75;;;9.55;;
77040;SDS011;65974;42.664;23.264;2023-09-19T00:35:18;17.05;;;10.18;;
77040;SDS011;65974;42.664;23.264;2023-09-19T00:37:49;19.13;;;11.05;;
77040;SDS011;65974;42.664;23.264;2023-09-19T00:40:15;17.13;;;9.98;;
77040;SDS011;65974;42.664;23.264;2023-09-19T00:42:42;17.63;;;10.38;;
77040;SDS011;65974;42.664;23.264;2023-09-19T00:45:09;17.58;;;9.43;;
77040;SDS011;65974;42.664;23.264;2023-09-19T00:47:42;15.65;;;9.77;;
77040;SDS011;65974;42.664;23.264;2023-09-19T00:50:19;17.67;;;9.52;;
77040;SDS011;65974;42.664;23.264;2023-09-19T00:52:48;20.27;;;10.43;;
77040;SDS011;65974;42.664;23.264;2023-09-19T00:55:15;18.35;;;10.20;;
77040;SDS011;65974;42.664;23.264;2023-09-19T00:57:43;17.40;;;9.50;;
77040;SDS011;65974;42.664;23.264;2023-09-19T01:00:09;17.95;;;10.13;;
77040;SDS011;65974;42.664;23.264;2023-09-19T01:02:40;19.83;;;10.70;;
77040;SDS011;65974;42.664;23.264;2023-09-19T01:05:08;20.67;;;10.82;;
77040;SDS011;65974;42.664;23.264;2023-09-19T01:07:34;17.48;;;10.65;;
77040;SDS011;65974;42.664;23.264;2023-09-19T01:10:04;20.60;;;11.70;;
77040;SDS011;65974;42.664;23.264;2023-09-19T01:12:39;17.95;;;9.90;;
77040;SDS011;65974;42.664;23.264;2023-09-19T01:23:32;21.08;;;11.40;;
77040;SDS011;65974;42.664;23.264;2023-09-19T01:26:30;24.85;;;11.13;;
77040;SDS011;65974;42.664;23.264;2023-09-19T01:29:37;22.92;;;11.05;;
77040;SDS011;65974;42.664;23.264;2023-09-19T01:32:05;20.92;;;11.25;;
77040;SDS011;65974;42.664;23.264;2023-09-19T01:34:44;16.20;;;9.68;;
77040;SDS011;65974;42.664;23.264;2023-09-19T01:37:15;18.90;;;10.38;;
77040;SDS011;65974;42.664;23.264;2023-09-19T01:39:57;19.05;;;10.23;;
77040;SDS011;65974;42.664;23.264;2023-09-19T01:42:44;18.90;;;10.30;;
77040;SDS011;65974;42.664;23.264;2023-09-19T01:51:07;22.75;;;11.98;;
77040;SDS011;65974;42.664;23.264;2023-09-19T01:56:28;19.55;;;11.35;;
77040;SDS011;65974;42.664;23.264;2023-09-19T01:59:02;16.98;;;10.75;;
77040;SDS011;65974;42.664;23.264;2023-09-19T02:01:32;26.17;;;10.63;;
77040;SDS011;65974;42.664;23.264;2023-09-19T02:04:00;16.45;;;10.00;;
77040;SDS011;65974;42.664;23.264;2023-09-19T02:06:26;20.33;;;10.82;;
77040;SDS011;65974;42.664;23.264;2023-09-19T02:08:52;21.27;;;10.23;;
77040;SDS011;65974;42.664;23.264;2023-09-19T02:11:19;19.92;;;11.15;;
77040;SDS011;65974;42.664;23.264;2023-09-19T02:13:44;19.42;;;10.90;;
77040;SDS011;65974;42.664;23.264;2023-09-19T02:16:10;24.92;;;11.35;;
77040;SDS011;65974;42.664;23.264;2023-09-19T02:18:36;19.27;;;10.20;;
77040;SDS011;65974;42.664;23.264;2023-09-19T02:21:01;17.52;;;10.52;;
77040;SDS011;65974;42.664;23.264;2023-09-19T02:23:29;19.50;;;11.60;;
77040;SDS011;65974;42.664;23.264;2023-09-19T02:25:55;18.55;;;11.15;;
77040;SDS011;65974;42.664;23.264;2023-09-19T02:28:29;21.90;;;10.75;;
77040;SDS011;65974;42.664;23.264;2023-09-19T02:30:55;24.60;;;11.43;;
77040;SDS011;65974;42.664;23.264;2023-09-19T02:33:21;24.77;;;10.95;;
77040;SDS011;65974;42.664;23.264;2023-09-19T02:35:47;19.02;;;11.15;;
77040;SDS011;65974;42.664;23.264;2023-09-19T02:38:13;22.90;;;12.27;;
77040;SDS011;65974;42.664;23.264;2023-09-19T02:40:43;28.75;;;11.25;;
77040;SDS011;65974;42.664;23.264;2023-09-19T02:43:09;20.73;;;10.70;;
77040;SDS011;65974;42.664;23.264;2023-09-19T02:45:35;21.27;;;11.57;;
77040;SDS011;65974;42.664;23.264;2023-09-19T02:48:00;18.85;;;10.40;;
77040;SDS011;65974;42.664;23.264;2023-09-19T02:50:29;22.88;;;11.75;;
77040;SDS011;65974;42.664;23.264;2023-09-19T02:52:54;21.88;;;10.65;;
77040;SDS011;65974;42.664;23.264;2023-09-19T02:55:20;19.25;;;10.50;;
77040;SDS011;65974;42.664;23.264;2023-09-19T02:57:50;21.35;;;11.20;;
77040;SDS011;65974;42.664;23.264;2023-09-19T03:00:17;20.02;;;11.50;;
77040;SDS011;65974;42.664;23.264;2023-09-19T03:02:47;22.23;;;10.98;;
77040;SDS011;65974;42.664;23.264;2023-09-19T03:05:13;30.33;;;11.68;;
77040;SDS011;65974;42.664;23.264;2023-09-19T03:07:39;20.63;;;12.65;;
77040;SDS011;65974;42.664;23.264;2023-09-19T03:10:07;21.45;;;11.98;;
77040;SDS011;65974;42.664;23.264;2023-09-19T03:12:33;18.17;;;11.05;;
77040;SDS011;65974;42.664;23.264;2023-09-19T03:14:59;20.17;;;10.20;;
77040;SDS011;65974;42.664;23.264;2023-09-19T03:17:25;20.38;;;11.00;;
77040;SDS011;65974;42.664;23.264;2023-09-19T03:19:50;20.88;;;12.02;;
77040;SDS011;65974;42.664;23.264;2023-09-19T03:22:16;22.25;;;11.32;;
77040;SDS011;65974;42.664;23.264;2023-09-19T03:24:42;24.13;;;11.70;;
77040;SDS011;65974;42.664;23.264;2023-09-19T03:27:11;21.10;;;11.63;;
77040;SDS011;65974;42.664;23.264;2023-09-19T03:29:41;21.20;;;11.10;;
77040;SDS011;65974;42.664;23.264;2023-09-19T03:32:09;25.33;;;12.02;;
77040;SDS011;65974;42.664;23.264;2023-09-19T03:34:38;22.42;;;12.07;;
77040;SDS011;65974;42.664;23.264;2023-09-19T03:37:08;22.10;;;12.23;;
77040;SDS011;65974;42.664;23.264;2023-09-19T03:39:36;22.15;;;13.23;;
77040;SDS011;65974;42.664;23.264;2023-09-19T03:42:02;21.23;;;11.50;;
77040;SDS011;65974;42.664;23.264;2023-09-19T03:44:32;20.67;;;13.27;;
77040;SDS011;65974;42.664;23.264;2023-09-19T03:46:57;19.55;;;12.07;;
77040;SDS011;65974;42.664;23.264;2023-09-19T03:49:23;22.42;;;11.27;;
77040;SDS011;65974;42.664;23.264;2023-09-19T03:51:48;26.20;;;11.88;;
77040;SDS011;65974;42.664;23.264;2023-09-19T03:54:14;18.88;;;10.63;;
77040;SDS011;65974;42.664;23.264;2023-09-19T03:56:39;25.13;;;13.35;;
77040;SDS011;65974;42.664;23.264;2023-09-19T03:59:05;21.20;;;12.13;;
77040;SDS011;65974;42.664;23.264;2023-09-19T04:01:31;19.80;;;11.77;;
77040;SDS011;65974;42.664;23.264;2023-09-19T04:03:57;20.02;;;10.80;;
77040;SDS011;65974;42.664;23.264;2023-09-19T04:06:23;25.80;;;12.57;;
77040;SDS011;65974;42.664;23.264;2023-09-19T04:08:48;23.67;;;13.38;;
77040;SDS011;65974;42.664;23.264;2023-09-19T04:11:14;20.58;;;12.75;;
77040;SDS011;65974;42.664;23.264;2023-09-19T04:13:39;20.63;;;11.93;;
77040;SDS011;65974;42.664;23.264;2023-09-19T04:16:05;27.20;;;12.90;;
77040;SDS011;65974;42.664;23.264;2023-09-19T04:18:32;31.90;;;15.18;;
77040;SDS011;65974;42.664;23.264;2023-09-19T04:20:58;30.35;;;13.07;;
77040;SDS011;65974;42.664;23.264;2023-09-19T04:23:27;23.83;;;11.57;;
77040;SDS011;65974;42.664;23.264;2023-09-19T04:25:53;24.60;;;13.82;;
77040;SDS011;65974;42.664;23.264;2023-09-19T04:28:18;30.75;;;14.15;;
77040;SDS011;65974;42.664;23.264;2023-09-19T04:30:44;39.13;;;18.52;;
77040;SDS011;65974;42.664;23.264;2023-09-19T04:33:09;39.28;;;19.25;;
77040;SDS011;65974;42.664;23.264;2023-09-19T04:35:35;30.40;;;16.58;;
77040;SDS011;65974;42.664;23.264;2023-09-19T04:38:00;38.90;;;17.38;;
77040;SDS011;65974;42.664;23.264;2023-09-19T04:40:26;34.25;;;20.08;;
77040;SDS011;65974;42.664;23.264;2023-09-19T04:42:55;52.85;;;24.85;;
77040;SDS011;65974;42.664;23.264;2023-09-19T04:45:24;35.03;;;17.55;;
77040;SDS011;65974;42.664;23.264;2023-09-19T04:47:51;37.17;;;18.70;;
77040;SDS011;65974;42.664;23.264;2023-09-19T04:50:17;38.67;;;17.55;;
77040;SDS011;65974;42.664;23.264;2023-09-19T04:52:43;38.75;;;19.45;;
77040;SDS011;65974;42.664;23.264;2023-09-19T04:55:13;43.20;;;19.52;;
77040;SDS011;65974;42.664;23.264;2023-09-19T04:57:45;31.83;;;16.50;;
77040;SDS011;65974;42.664;23.264;2023-09-19T05:00:15;28.25;;;14.05;;
77040;SDS011;65974;42.664;23.264;2023-09-19T05:02:44;23.13;;;12.52;;
77040;SDS011;65974;42.664;23.264;2023-09-19T05:05:09;24.80;;;13.55;;
77040;SDS011;65974;42.664;23.264;2023-09-19T05:07:36;31.20;;;14.98;;
77040;SDS011;65974;42.664;23.264;2023-09-19T05:10:02;29.55;;;16.35;;
77040;SDS011;65974;42.664;23.264;2023-09-19T05:12:32;27.42;;;14.75;;
77040;SDS011;65974;42.664;23.264;2023-09-19T05:15:07;27.85;;;14.88;;
77040;SDS011;65974;42.664;23.264;2023-09-19T05:17:33;31.58;;;16.05;;
77040;SDS011;65974;42.664;23.264;2023-09-19T05:19:59;30.42;;;12.88;;
77040;SDS011;65974;42.664;23.264;2023-09-19T05:22:49;34.00;;;13.60;;
77040;SDS011;65974;42.664;23.264;2023-09-19T05:25:15;29.45;;;14.93;;
77040;SDS011;65974;42.664;23.264;2023-09-19T05:27:43;22.60;;;11.48;;
77040;SDS011;65974;42.664;23.264;2023-09-19T05:30:09;29.63;;;13.20;;
77040;SDS011;65974;42.664;23.264;2023-09-19T05:32:35;23.27;;;13.30;;
77040;SDS011;65974;42.664;23.264;2023-09-19T05:35:00;28.88;;;13.02;;
77040;SDS011;65974;42.664;23.264;2023-09-19T05:37:26;27.35;;;14.75;;
77040;SDS011;65974;42.664;23.264;2023-09-19T05:39:51;27.20;;;13.68;;
77040;SDS011;65974;42.664;23.264;2023-09-19T05:42:18;31.30;;;14.95;;
77040;SDS011;65974;42.664;23.264;2023-09-19T05:44:44;26.67;;;11.25;;
77040;SDS011;65974;42.664;23.264;2023-09-19T05:47:09;24.45;;;13.07;;
77040;SDS011;65974;42.664;23.264;2023-09-19T05:49:35;25.23;;;12.02;;
77040;SDS011;65974;42.664;23.264;2023-09-19T05:52:07;24.17;;;13.15;;
77040;SDS011;65974;42.664;23.264;2023-09-19T05:54:33;21.60;;;11.10;;
77040;SDS011;65974;42.664;23.264;2023-09-19T05:56:59;21.83;;;11.85;;
77040;SDS011;65974;42.664;23.264;2023-09-19T05:59:26;28.92;;;14.05;;
77040;SDS011;65974;42.664;23.264;2023-09-19T06:01:52;33.38;;;14.25;;
77040;SDS011;65974;42.664;23.264;2023-09-19T06:04:18;31.95;;;14.77;;
77040;SDS011;65974;42.664;23.264;2023-09-19T06:06:44;33.55;;;14.98;;
77040;SDS011;65974;42.664;23.264;2023-09-19T06:09:10;31.08;;;15.75;;
77040;SDS011;65974;42.664;23.264;2023-09-19T06:11:35;30.25;;;14.75;;
77040;SDS011;65974;42.664;23.264;2023-09-19T06:14:01;21.83;;;13.05;;
77040;SDS011;65974;42.664;23.264;2023-09-19T06:16:28;23.73;;;13.93;;
77040;SDS011;65974;42.664;23.264;2023-09-19T06:18:54;32.85;;;14.45;;
77040;SDS011;65974;42.664;23.264;2023-09-19T06:21:21;34.88;;;16.15;;
77040;SDS011;65974;42.664;23.264;2023-09-19T06:23:47;31.05;;;15.10;;
77040;SDS011;65974;42.664;23.264;2023-09-19T06:26:12;28.75;;;15.65;;
77040;SDS011;65974;42.664;23.264;2023-09-19T06:28:38;32.70;;;15.05;;
77040;SDS011;65974;42.664;23.264;2023-09-19T06:31:03;31.13;;;15.52;;
77040;SDS011;65974;42.664;23.264;2023-09-19T06:33:33;32.25;;;13.50;;
77040;SDS011;65974;42.664;23.264;2023-09-19T06:35:58;24.65;;;12.20;;
77040;SDS011;65974;42.664;23.264;2023-09-19T06:38:25;20.42;;;10.75;;
77040;SDS011;65974;42.664;23.264;2023-09-19T06:40:50;20.33;;;10.43;;
77040;SDS011;65974;42.664;23.264;2023-09-19T06:43:16;26.25;;;11.10;;
77040;SDS011;65974;42.664;23.264;2023-09-19T06:45:42;21.48;;;10.98;;
77040;SDS011;65974;42.664;23.264;2023-09-19T06:48:07;31.17;;;12.70;;
77040;SDS011;65974;42.664;23.264;2023-09-19T06:50:34;23.60;;;11.88;;
77040;SDS011;65974;42.664;23.264;2023-09-19T06:53:01;24.48;;;10.98;;
77040;SDS011;65974;42.664;23.264;2023-09-19T06:55:27;18.98;;;10.70;;
77040;SDS011;65974;42.664;23.264;2023-09-19T06:57:56;20.83;;;11.20;;
77040;SDS011;65974;42.664;23.264;2023-09-19T07:00:21;24.70;;;11.35;;
77040;SDS011;65974;42.664;23.264;2023-09-19T07:05:22;25.15;;;11.80;;
77040;SDS011;65974;42.664;23.264;2023-09-19T07:07:48;26.08;;;11.85;;
77040;SDS011;65974;42.664;23.264;2023-09-19T07:10:13;27.45;;;13.23;;
77040;SDS011;65974;42.664;23.264;2023-09-19T07:12:40;25.08;;;10.98;;
77040;SDS011;65974;42.664;23.264;2023-09-19T07:17:32;23.52;;;10.77;;
77040;SDS011;65974;42.664;23.264;2023-09-19T07:19:58;22.65;;;11.43;;
77040;SDS011;65974;42.664;23.264;2023-09-19T07:22:24;25.38;;;11.55;;
77040;SDS011;65974;42.664;23.264;2023-09-19T07:24:50;26.20;;;11.20;;
77040;SDS011;65974;42.664;23.264;2023-09-19T07:27:16;20.48;;;10.57;;
77040;SDS011;65974;42.664;23.264;2023-09-19T07:30:00;22.85;;;10.90;;
77040;SDS011;65974;42.664;23.264;2023-09-19T07:32:25;25.65;;;12.18;;
77040;SDS011;65974;42.664;23.264;2023-09-19T07:34:51;25.63;;;11.57;;
77040;SDS011;65974;42.664;23.264;2023-09-19T07:37:16;23.60;;;12.73;;
77040;SDS011;65974;42.664;23.264;2023-09-19T07:39:42;23.10;;;11.75;;
77040;SDS011;65974;42.664;23.264;2023-09-19T07:42:09;28.17;;;12.55;;
77040;SDS011;65974;42.664;23.264;2023-09-19T07:44:36;22.67;;;13.10;;
77040;SDS011;65974;42.664;23.264;2023-09-19T07:47:20;25.02;;;12.10;;
77040;SDS011;65974;42.664;23.264;2023-09-19T07:49:46;27.20;;;12.02;;
77040;SDS011;65974;42.664;23.264;2023-09-19T07:52:12;25.85;;;11.98;;
77040;SDS011;65974;42.664;23.264;2023-09-19T07:54:38;27.33;;;12.40;;
77040;SDS011;65974;42.664;23.264;2023-09-19T07:57:08;22.70;;;11.85;;
77040;SDS011;65974;42.664;23.264;2023-09-19T07:59:34;19.98;;;11.80;;
77040;SDS011;65974;42.664;23.264;2023-09-19T08:01:59;21.80;;;11.38;;
77040;SDS011;65974;42.664;23.264;2023-09-19T08:04:25;31.88;;;14.75;;
77040;SDS011;65974;42.664;23.264;2023-09-19T08:06:51;27.02;;;12.23;;
77040;SDS011;65974;42.664;23.264;2023-09-19T08:09:17;29.52;;;12.30;;
77040;SDS011;65974;42.664;23.264;2023-09-19T08:11:46;28.40;;;12.52;;
77040;SDS011;65974;42.664;23.264;2023-09-19T08:14:12;27.13;;;12.80;;
77040;SDS011;65974;42.664;23.264;2023-09-19T08:16:39;27.27;;;11.35;;
77040;SDS011;65974;42.664;23.264;2023-09-19T08:19:05;24.95;;;12.38;;
77040;SDS011;65974;42.664;23.264;2023-09-19T08:21:32;28.95;;;12.07;;
77040;SDS011;65974;42.664;23.264;2023-09-19T08:23:58;30.05;;;12.77;;
77040;SDS011;65974;42.664;23.264;2023-09-19T08:26:23;29.25;;;10.60;;
77040;SDS011;65974;42.664;23.264;2023-09-19T08:28:49;23.35;;;11.25;;
77040;SDS011;65974;42.664;23.264;2023-09-19T08:31:16;26.00;;;12.55;;
77040;SDS011;65974;42.664;23.264;2023-09-19T08:33:42;22.05;;;12.07;;
77040;SDS011;65974;42.664;23.264;2023-09-19T08:36:10;29.50;;;12.55;;
77040;SDS011;65974;42.664;23.264;2023-09-19T08:38:37;20.45;;;11.30;;
77040;SDS011;65974;42.664;23.264;2023-09-19T08:41:06;22.33;;;10.88;;
77040;SDS011;65974;42.664;23.264;2023-09-19T08:43:33;27.70;;;11.63;;
77040;SDS011;65974;42.664;23.264;2023-09-19T08:48:30;22.27;;;10.75;;
77040;SDS011;65974;42.664;23.264;2023-09-19T08:53:41;22.27;;;10.15;;
77040;SDS011;65974;42.664;23.264;2023-09-19T08:56:14;26.73;;;10.75;;
77040;SDS011;65974;42.664;23.264;2023-09-19T09:01:32;19.42;;;11.60;;
77040;SDS011;65974;42.664;23.264;2023-09-19T09:03:58;25.90;;;10.98;;
77040;SDS011;65974;42.664;23.264;2023-09-19T09:06:25;22.45;;;10.85;;
77040;SDS011;65974;42.664;23.264;2023-09-19T09:08:53;21.38;;;10.80;;
77040;SDS011;65974;42.664;23.264;2023-09-19T09:11:19;23.10;;;11.80;;
77040;SDS011;65974;42.664;23.264;2023-09-19T09:13:45;21.13;;;9.50;;
77040;SDS011;65974;42.664;23.264;2023-09-19T09:16:12;26.83;;;10.60;;
77040;SDS011;65974;42.664;23.264;2023-09-19T09:18:39;19.25;;;10.65;;
77040;SDS011;65974;42.664;23.264;2023-09-19T09:21:06;26.77;;;11.23;;
77040;SDS011;65974;42.664;23.264;2023-09-19T09:23:31;24.15;;;11.60;;
77040;SDS011;65974;42.664;23.264;2023-09-19T09:25:57;19.58;;;10.23;;
77040;SDS011;65974;42.664;23.264;2023-09-19T09:28:28;25.70;;;11.27;;
77040;SDS011;65974;42.664;23.264;2023-09-19T09:30:55;21.40;;;11.38;;
77040;SDS011;65974;42.664;23.264;2023-09-19T09:33:23;25.13;;;9.98;;
77040;SDS011;65974;42.664;23.264;2023-09-19T09:35:59;25.88;;;10.73;;
77040;SDS011;65974;42.664;23.264;2023-09-19T09:38:28;26.35;;;11.50;;
77040;SDS011;65974;42.664;23.264;2023-09-19T09:40:58;24.58;;;11.80;;
77040;SDS011;65974;42.664;23.264;2023-09-19T09:43:35;21.05;;;11.88;;
77040;SDS011;65974;42.664;23.264;2023-09-19T09:48:55;20.63;;;10.90;;
77040;SDS011;65974;42.664;23.264;2023-09-19T09:52:24;21.30;;;11.70;;
77040;SDS011;65974;42.664;23.264;2023-09-19T09:54:58;19.13;;;9.40;;
77040;SDS011;65974;42.664;23.264;2023-09-19T09:57:32;23.42;;;9.90;;
77040;SDS011;65974;42.664;23.264;2023-09-19T09:59:58;23.77;;;10.85;;
77040;SDS011;65974;42.664;23.264;2023-09-19T10:02:41;19.83;;;10.52;;
77040;SDS011;65974;42.664;23.264;2023-09-19T10:05:14;22.10;;;9.63;;
77040;SDS011;65974;42.664;23.264;2023-09-19T10:08:11;18.27;;;9.52;;
77040;SDS011;65974;42.664;23.264;2023-09-19T10:10:39;22.92;;;10.25;;
77040;SDS011;65974;42.664;23.264;2023-09-19T10:13:07;20.65;;;11.43;;
77040;SDS011;65974;42.664;23.264;2023-09-19T10:15:37;26.55;;;11.35;;
77040;SDS011;65974;42.664;23.264;2023-09-19T10:18:06;19.77;;;9.30;;
77040;SDS011;65974;42.664;23.264;2023-09-19T10:20:35;21.90;;;10.05;;
77040;SDS011;65974;42.664;23.264;2023-09-19T10:23:12;17.63;;;10.32;;
77040;SDS011;65974;42.664;23.264;2023-09-19T10:25:41;22.80;;;10.98;;
77040;SDS011;65974;42.664;23.264;2023-09-19T10:28:11;22.20;;;10.65;;
77040;SDS011;65974;42.664;23.264;2023-09-19T10:30:43;20.95;;;10.02;;
77040;SDS011;65974;42.664;23.264;2023-09-19T10:33:13;19.17;;;10.27;;
77040;SDS011;65974;42.664;23.264;2023-09-19T10:35:47;20.65;;;10.32;;
77040;SDS011;65974;42.664;23.264;2023-09-19T10:38:14;18.73;;;10.48;;
77040;SDS011;65974;42.664;23.264;2023-09-19T10:40:44;19.98;;;10.43;;
77040;SDS011;65974;42.664;23.264;2023-09-19T10:43:17;30.67;;;11.13;;
77040;SDS011;65974;42.664;23.264;2023-09-19T10:45:44;20.35;;;10.27;;
77040;SDS011;65974;42.664;23.264;2023-09-19T10:48:11;20.50;;;10.98;;
77040;SDS011;65974;42.664;23.264;2023-09-19T10:55:37;21.95;;;12.40;;
77040;SDS011;65974;42.664;23.264;2023-09-19T10:58:03;22.83;;;10.25;;
77040;SDS011;65974;42.664;23.264;2023-09-19T11:00:56;23.88;;;10.23;;
77040;SDS011;65974;42.664;23.264;2023-09-19T11:03:27;21.73;;;9.93;;
77040;SDS011;65974;42.664;23.264;2023-09-19T11:11:39;16.33;;;8.80;;
77040;SDS011;65974;42.664;23.264;2023-09-19T11:30:49;19.88;;;9.82;;
77040;SDS011;65974;42.664;23.264;2023-09-19T11:33:19;19.63;;;10.10;;
77040;SDS011;65974;42.664;23.264;2023-09-19T11:36:04;19.65;;;10.40;;
77040;SDS011;65974;42.664;23.264;2023-09-19T11:43:45;21.65;;;10.20;;
77040;SDS011;65974;42.664;23.264;2023-09-19T11:46:11;22.00;;;8.73;;
77040;SDS011;65974;42.664;23.264;2023-09-19T11:48:41;21.30;;;10.95;;
77040;SDS011;65974;42.664;23.264;2023-09-19T11:51:13;20.98;;;9.40;;
77040;SDS011;65974;42.664;23.264;2023-09-19T11:53:48;21.27;;;10.00;;
77040;SDS011;65974;42.664;23.264;2023-09-19T11:56:18;17.98;;;9.85;;
77040;SDS011;65974;42.664;23.264;2023-09-19T11:58:46;16.52;;;9.05;;
77040;SDS011;65974;42.664;23.264;2023-09-19T12:01:31;18.35;;;9.68;;
77040;SDS011;65974;42.664;23.264;2023-09-19T12:03:59;16.80;;;10.55;;
77040;SDS011;65974;42.664;23.264;2023-09-19T12:06:27;24.63;;;9.93;;
77040;SDS011;65974;42.664;23.264;2023-09-19T12:08:55;19.40;;;8.65;;
77040;SDS011;65974;42.664;23.264;2023-09-19T12:11:22;22.88;;;10.55;;
77040;SDS011;65974;42.664;23.264;2023-09-19T12:16:17;18.05;;;9.68;;
77040;SDS011;65974;42.664;23.264;2023-09-19T12:18:46;21.50;;;10.32;;
77040;SDS011;65974;42.664;23.264;2023-09-19T12:24:06;17.20;;;9.50;;
77040;SDS011;65974;42.664;23.264;2023-09-19T12:26:44;16.27;;;8.98;;
77040;SDS011;65974;42.664;23.264;2023-09-19T12:29:17;17.98;;;8.77;;
77040;SDS011;65974;42.664;23.264;2023-09-19T12:31:50;18.15;;;9.18;;
77040;SDS011;65974;42.664;23.264;2023-09-19T12:34:17;18.40;;;9.95;;
77040;SDS011;65974;42.664;23.264;2023-09-19T12:36:45;21.17;;;9.82;;
77040;SDS011;65974;42.664;23.264;2023-09-19T12:39:21;25.02;;;9.70;;
77040;SDS011;65974;42.664;23.264;2023-09-19T12:41:48;22.05;;;9.77;;
77040;SDS011;65974;42.664;23.264;2023-09-19T12:44:15;18.15;;;10.00;;
77040;SDS011;65974;42.664;23.264;2023-09-19T12:46:43;18.10;;;8.90;;
77040;SDS011;65974;42.664;23.264;2023-09-19T12:49:19;17.60;;;8.65;;
77040;SDS011;65974;42.664;23.264;2023-09-19T12:51:45;16.63;;;10.38;;
77040;SDS011;65974;42.664;23.264;2023-09-19T12:54:14;18.80;;;11.43;;
77040;SDS011;65974;42.664;23.264;2023-09-19T12:56:42;16.73;;;9.10;;
77040;SDS011;65974;42.664;23.264;2023-09-19T12:59:14;20.67;;;8.60;;
77040;SDS011;65974;42.664;23.264;2023-09-19T13:01:40;17.20;;;9.13;;
77040;SDS011;65974;42.664;23.264;2023-09-19T13:04:18;15.95;;;9.40;;
77040;SDS011;65974;42.664;23.264;2023-09-19T13:06:44;15.95;;;9.18;;
77040;SDS011;65974;42.664;23.264;2023-09-19T13:09:12;13.93;;;8.52;;
77040;SDS011;65974;42.664;23.264;2023-09-19T13:11:40;15.68;;;8.05;;
77040;SDS011;65974;42.664;23.264;2023-09-19T13:14:17;15.15;;;9.30;;
77040;SDS011;65974;42.664;23.264;2023-09-19T13:17:02;16.45;;;9.27;;
77040;SDS011;65974;42.664;23.264;2023-09-19T13:25:08;13.50;;;8.30;;
77040;SDS011;65974;42.664;23.264;2023-09-19T13:27:46;19.38;;;8.52;;
77040;SDS011;65974;42.664;23.264;2023-09-19T13:30:33;18.98;;;9.27;;
77040;SDS011;65974;42.664;23.264;2023-09-19T13:33:05;15.18;;;8.32;;
77040;SDS011;65974;42.664;23.264;2023-09-19T13:35:33;14.70;;;7.68;;
77040;SDS011;65974;42.664;23.264;2023-09-19T13:37:58;16.33;;;8.32;;
77040;SDS011;65974;42.664;23.264;2023-09-19T13:40:25;15.18;;;8.02;;
77040;SDS011;65974;42.664;23.264;2023-09-19T13:42:55;17.73;;;9.55;;
77040;SDS011;65974;42.664;23.264;2023-09-19T13:45:21;16.75;;;9.05;;
77040;SDS011;65974;42.664;23.264;2023-09-19T13:47:49;14.20;;;8.15;;
77040;SDS011;65974;42.664;23.264;2023-09-19T13:50:15;19.17;;;8.57;;
77040;SDS011;65974;42.664;23.264;2023-09-19T13:52:41;15.65;;;8.80;;
77040;SDS011;65974;42.664;23.264;2023-09-19T13:55:07;20.65;;;8.57;;
77040;SDS011;65974;42.664;23.264;2023-09-19T13:57:33;17.27;;;9.20;;
77040;SDS011;65974;42.664;23.264;2023-09-19T13:59:59;17.73;;;8.90;;
77040;SDS011;65974;42.664;23.264;2023-09-19T14:02:24;15.18;;;8.45;;
77040;SDS011;65974;42.664;23.264;2023-09-19T14:04:50;18.23;;;8.82;;
77040;SDS011;65974;42.664;23.264;2023-09-19T14:07:16;19.35;;;8.35;;
77040;SDS011;65974;42.664;23.264;2023-09-19T14:09:43;12.93;;;8.02;;
77040;SDS011;65974;42.664;23.264;2023-09-19T14:12:09;15.77;;;8.80;;
77040;SDS011;65974;42.664;23.264;2023-09-19T14:14:35;15.07;;;7.97;;
77040;SDS011;65974;42.664;23.264;2023-09-19T14:17:02;16.92;;;8.38;;
77040;SDS011;65974;42.664;23.264;2023-09-19T14:19:28;10.75;;;7.45;;
77040;SDS011;65974;42.664;23.264;2023-09-19T14:21:53;14.75;;;8.52;;
77040;SDS011;65974;42.664;23.264;2023-09-19T14:24:22;15.00;;;7.78;;
77040;SDS011;65974;42.664;23.264;2023-09-19T14:26:48;15.45;;;8.30;;
77040;SDS011;65974;42.664;23.264;2023-09-19T14:29:14;14.65;;;7.65;;
77040;SDS011;65974;42.664;23.264;2023-09-19T14:31:40;14.63;;;7.78;;
77040;SDS011;65974;42.664;23.264;2023-09-19T14:34:07;12.10;;;7.57;;
77040;SDS011;65974;42.664;23.264;2023-09-19T14:36:35;13.43;;;8.57;;
77040;SDS011;65974;42.664;23.264;2023-09-19T14:39:00;15.73;;;8.63;;
77040;SDS011;65974;42.664;23.264;2023-09-19T14:41:26;17.27;;;8.45;;
77040;SDS011;65974;42.664;23.264;2023-09-19T14:43:51;13.70;;;7.95;;
77040;SDS011;65974;42.664;23.264;2023-09-19T14:46:17;17.50;;;8.70;;
77040;SDS011;65974;42.664;23.264;2023-09-19T14:48:44;17.48;;;8.98;;
77040;SDS011;65974;42.664;23.264;2023-09-19T14:51:12;26.50;;;8.77;;
77040;SDS011;65974;42.664;23.264;2023-09-19T14:53:38;17.45;;;11.05;;
77040;SDS011;65974;42.664;23.264;2023-09-19T14:56:08;24.15;;;10.38;;
77040;SDS011;65974;42.664;23.264;2023-09-19T14:58:34;23.33;;;14.38;;
77040;SDS011;65974;42.664;23.264;2023-09-19T15:03:36;27.10;;;13.00;;
77040;SDS011;65974;42.664;23.264;2023-09-19T15:06:05;39.88;;;12.27;;
77040;SDS011;65974;42.664;23.264;2023-09-19T15:08:32;17.02;;;10.73;;
77040;SDS011;65974;42.664;23.264;2023-09-19T15:11:00;15.25;;;8.88;;
77040;SDS011;65974;42.664;23.264;2023-09-19T15:13:29;16.73;;;7.97;;
77040;SDS011;65974;42.664;23.264;2023-09-19T15:16:07;13.63;;;7.43;;
77040;SDS011;65974;42.664;23.264;2023-09-19T15:18:38;14.07;;;8.68;;
77040;SDS011;65974;42.664;23.264;2023-09-19T15:21:09;20.63;;;9.23;;
77040;SDS011;65974;42.664;23.264;2023-09-19T15:23:36;16.70;;;9.00;;
77040;SDS011;65974;42.664;23.264;2023-09-19T15:26:06;14.13;;;9.43;;
77040;SDS011;65974;42.664;23.264;2023-09-19T15:28:42;15.90;;;9.15;;
77040;SDS011;65974;42.664;23.264;2023-09-19T15:31:09;15.25;;;8.73;;
77040;SDS011;65974;42.664;23.264;2023-09-19T15:33:36;15.25;;;8.18;;
77040;SDS011;65974;42.664;23.264;2023-09-19T15:36:05;15.35;;;9.00;;
77040;SDS011;65974;42.664;23.264;2023-09-19T15:38:54;17.65;;;8.65;;
77040;SDS011;65974;42.664;23.264;2023-09-19T15:41:24;15.00;;;8.38;;
77040;SDS011;65974;42.664;23.264;2023-09-19T15:43:55;14.95;;;9.23;;